sensor_id;sensor_type;location;lat;lon;timestamp;P1;durP1;ratioP1;P2;durP2;ratioP2
31770;SDS011;18343;50.152;8.182;2024-01-27T00:01:18;15.75;;;2.80;;
31770;SDS011;18343;50.152;8.182;2024-01-27T00:04:03;13.70;;;2.88;;
31770;SDS011;18343;50.152;8.182;2024-01-27T00:06:47;12.00;;;2.97;;
31770;SDS011;18343;50.152;8.182;2024-01-27T00:09:32;16.52;;;3.25;;
31770;SDS011;18343;50.152;8.182;2024-01-27T00:12:16;14.88;;;3.03;;
31770;SDS011;18343;50.152;8.182;2024-01-27T00:15:01;14.25;;;3.03;;
31770;SDS011;18343;50.152;8.182;2024-01-27T00:17:48;12.20;;;2.38;;
31770;SDS011;18343;50.152;8.182;2024-01-27T00:20:33;10.93;;;2.63;;
31770;SDS011;18343;50.152;8.182;2024-01-27T00:23:17;22.83;;;3.22;;
31770;SDS011;18343;50.152;8.182;2024-01-27T00:26:02;8.63;;;2.40;;
31770;SDS011;18343;50.152;8.182;2024-01-27T00:28:47;17.95;;;3.15;;
31770;SDS011;18343;50.152;8.182;2024-01-27T00:31:31;14.23;;;2.42;;
31770;SDS011;18343;50.152;8.182;2024-01-27T00:34:18;13.15;;;3.03;;
31770;SDS011;18343;50.152;8.182;2024-01-27T00:37:02;18.60;;;2.88;;
31770;SDS011;18343;50.152;8.182;2024-01-27T00:39:47;17.50;;;2.92;;
31770;SDS011;18343;50.152;8.182;2024-01-27T00:42:31;14.88;;;3.65;;
31770;SDS011;18343;50.152;8.182;2024-01-27T00:45:16;14.82;;;2.83;;
31770;SDS011;18343;50.152;8.182;2024-01-27T00:48:00;15.02;;;2.83;;
31770;SDS011;18343;50.152;8.182;2024-01-27T00:50:46;9.90;;;2.67;;
31770;SDS011;18343;50.152;8.182;2024-01-27T00:53:31;15.88;;;3.15;;
31770;SDS011;18343;50.152;8.182;2024-01-27T00:56:16;14.80;;;2.70;;
31770;SDS011;18343;50.152;8.182;2024-01-27T00:59:00;18.48;;;2.78;;
31770;SDS011;18343;50.152;8.182;2024-01-27T01:01:44;12.30;;;2.67;;
31770;SDS011;18343;50.152;8.182;2024-01-27T01:04:29;15.40;;;3.17;;
31770;SDS011;18343;50.152;8.182;2024-01-27T01:07:15;14.38;;;3.17;;
31770;SDS011;18343;50.152;8.182;2024-01-27T01:10:00;13.60;;;2.22;;
31770;SDS011;18343;50.152;8.182;2024-01-27T01:12:45;18.08;;;2.88;;
31770;SDS011;18343;50.152;8.182;2024-01-27T01:15:30;17.50;;;3.08;;
31770;SDS011;18343;50.152;8.182;2024-01-27T01:18:14;13.02;;;2.40;;
31770;SDS011;18343;50.152;8.182;2024-01-27T01:20:59;13.88;;;2.20;;
31770;SDS011;18343;50.152;8.182;2024-01-27T01:23:45;15.73;;;2.45;;
31770;SDS011;18343;50.152;8.182;2024-01-27T01:26:30;18.65;;;2.47;;
31770;SDS011;18343;50.152;8.182;2024-01-27T01:29:15;15.10;;;2.80;;
31770;SDS011;18343;50.152;8.182;2024-01-27T01:32:00;23.48;;;2.80;;
31770;SDS011;18343;50.152;8.182;2024-01-27T01:34:45;15.73;;;2.72;;
31770;SDS011;18343;50.152;8.182;2024-01-27T01:37:30;18.05;;;3.00;;
31770;SDS011;18343;50.152;8.182;2024-01-27T01:40:16;11.55;;;3.05;;
31770;SDS011;18343;50.152;8.182;2024-01-27T01:43:00;13.35;;;2.42;;
31770;SDS011;18343;50.152;8.182;2024-01-27T01:45:45;21.00;;;3.58;;
31770;SDS011;18343;50.152;8.182;2024-01-27T01:48:29;16.58;;;3.08;;
31770;SDS011;18343;50.152;8.182;2024-01-27T01:51:14;18.67;;;3.65;;
31770;SDS011;18343;50.152;8.182;2024-01-27T01:54:00;25.50;;;3.80;;
31770;SDS011;18343;50.152;8.182;2024-01-27T01:56:47;16.83;;;3.13;;
31770;SDS011;18343;50.152;8.182;2024-01-27T01:59:31;15.23;;;4.05;;
31770;SDS011;18343;50.152;8.182;2024-01-27T02:02:16;18.48;;;3.45;;
31770;SDS011;18343;50.152;8.182;2024-01-27T02:05:01;18.42;;;2.80;;
31770;SDS011;18343;50.152;8.182;2024-01-27T02:07:45;12.63;;;3.75;;
31770;SDS011;18343;50.152;8.182;2024-01-27T02:10:29;19.70;;;3.05;;
31770;SDS011;18343;50.152;8.182;2024-01-27T02:13:18;11.73;;;1.85;;
31770;SDS011;18343;50.152;8.182;2024-01-27T02:16:05;14.95;;;2.45;;
31770;SDS011;18343;50.152;8.182;2024-01-27T02:18:49;13.40;;;2.80;;
31770;SDS011;18343;50.152;8.182;2024-01-27T02:21:34;17.65;;;2.65;;
31770;SDS011;18343;50.152;8.182;2024-01-27T02:24:20;13.68;;;2.80;;
31770;SDS011;18343;50.152;8.182;2024-01-27T02:27:05;14.27;;;2.50;;
31770;SDS011;18343;50.152;8.182;2024-01-27T02:29:49;21.33;;;3.05;;
31770;SDS011;18343;50.152;8.182;2024-01-27T02:32:34;15.65;;;2.67;;
31770;SDS011;18343;50.152;8.182;2024-01-27T02:35:18;20.35;;;2.78;;
31770;SDS011;18343;50.152;8.182;2024-01-27T02:38:03;17.67;;;2.58;;
31770;SDS011;18343;50.152;8.182;2024-01-27T02:40:49;12.63;;;2.85;;
31770;SDS011;18343;50.152;8.182;2024-01-27T02:43:34;17.67;;;2.35;;
31770;SDS011;18343;50.152;8.182;2024-01-27T02:46:18;13.15;;;3.28;;
31770;SDS011;18343;50.152;8.182;2024-01-27T02:49:02;11.95;;;2.25;;
31770;SDS011;18343;50.152;8.182;2024-01-27T02:51:47;17.40;;;3.20;;
31770;SDS011;18343;50.152;8.182;2024-01-27T02:54:32;11.82;;;3.10;;
31770;SDS011;18343;50.152;8.182;2024-01-27T02:57:18;14.43;;;3.03;;
31770;SDS011;18343;50.152;8.182;2024-01-27T03:00:02;17.50;;;3.22;;
31770;SDS011;18343;50.152;8.182;2024-01-27T03:02:48;12.90;;;3.50;;
31770;SDS011;18343;50.152;8.182;2024-01-27T03:05:32;16.92;;;3.70;;
31770;SDS011;18343;50.152;8.182;2024-01-27T03:08:17;8.43;;;2.10;;
31770;SDS011;18343;50.152;8.182;2024-01-27T03:11:01;11.50;;;3.65;;
31770;SDS011;18343;50.152;8.182;2024-01-27T03:13:48;12.02;;;3.15;;
31770;SDS011;18343;50.152;8.182;2024-01-27T03:16:33;12.57;;;3.00;;
31770;SDS011;18343;50.152;8.182;2024-01-27T03:19:17;12.38;;;2.60;;
31770;SDS011;18343;50.152;8.182;2024-01-27T03:22:02;13.43;;;2.70;;
31770;SDS011;18343;50.152;8.182;2024-01-27T03:24:46;13.25;;;2.60;;
31770;SDS011;18343;50.152;8.182;2024-01-27T03:27:31;11.50;;;2.70;;
31770;SDS011;18343;50.152;8.182;2024-01-27T03:30:17;17.27;;;3.17;;
31770;SDS011;18343;50.152;8.182;2024-01-27T03:33:02;13.15;;;2.67;;
31770;SDS011;18343;50.152;8.182;2024-01-27T03:35:46;13.05;;;2.63;;
31770;SDS011;18343;50.152;8.182;2024-01-27T03:38:31;10.73;;;1.98;;
31770;SDS011;18343;50.152;8.182;2024-01-27T03:41:16;18.35;;;2.97;;
31770;SDS011;18343;50.152;8.182;2024-01-27T03:44:00;12.70;;;2.50;;
31770;SDS011;18343;50.152;8.182;2024-01-27T03:46:46;18.10;;;3.53;;
31770;SDS011;18343;50.152;8.182;2024-01-27T03:49:31;10.32;;;2.42;;
31770;SDS011;18343;50.152;8.182;2024-01-27T03:52:15;15.40;;;3.00;;
31770;SDS011;18343;50.152;8.182;2024-01-27T03:55:00;18.40;;;2.65;;
31770;SDS011;18343;50.152;8.182;2024-01-27T03:57:45;9.80;;;2.70;;
31770;SDS011;18343;50.152;8.182;2024-01-27T04:00:30;13.15;;;2.65;;
31770;SDS011;18343;50.152;8.182;2024-01-27T04:03:16;7.35;;;2.42;;
31770;SDS011;18343;50.152;8.182;2024-01-27T04:06:00;15.00;;;2.50;;
31770;SDS011;18343;50.152;8.182;2024-01-27T04:08:45;22.88;;;2.85;;
31770;SDS011;18343;50.152;8.182;2024-01-27T04:11:30;8.48;;;2.50;;
31770;SDS011;18343;50.152;8.182;2024-01-27T04:14:14;8.65;;;2.35;;
31770;SDS011;18343;50.152;8.182;2024-01-27T04:16:59;11.75;;;2.95;;
31770;SDS011;18343;50.152;8.182;2024-01-27T04:19:45;15.95;;;2.85;;
31770;SDS011;18343;50.152;8.182;2024-01-27T04:22:29;12.85;;;2.60;;
31770;SDS011;18343;50.152;8.182;2024-01-27T04:25:14;10.40;;;2.10;;
31770;SDS011;18343;50.152;8.182;2024-01-27T04:27:59;8.90;;;2.60;;
31770;SDS011;18343;50.152;8.182;2024-01-27T04:30:44;17.52;;;2.60;;
31770;SDS011;18343;50.152;8.182;2024-01-27T04:33:28;14.57;;;2.47;;
31770;SDS011;18343;50.152;8.182;2024-01-27T04:36:15;15.68;;;2.38;;
31770;SDS011;18343;50.152;8.182;2024-01-27T04:39:10;21.63;;;2.30;;
31770;SDS011;18343;50.152;8.182;2024-01-27T04:41:55;14.15;;;2.65;;
31770;SDS011;18343;50.152;8.182;2024-01-27T04:44:40;22.75;;;3.05;;
31770;SDS011;18343;50.152;8.182;2024-01-27T04:47:24;14.73;;;3.28;;
31770;SDS011;18343;50.152;8.182;2024-01-27T04:50:09;10.70;;;2.70;;
31770;SDS011;18343;50.152;8.182;2024-01-27T04:52:55;13.45;;;2.85;;
31770;SDS011;18343;50.152;8.182;2024-01-27T04:55:39;14.93;;;4.30;;
31770;SDS011;18343;50.152;8.182;2024-01-27T04:58:24;13.77;;;3.10;;
31770;SDS011;18343;50.152;8.182;2024-01-27T05:01:09;13.43;;;3.42;;
31770;SDS011;18343;50.152;8.182;2024-01-27T05:03:53;22.73;;;5.60;;
31770;SDS011;18343;50.152;8.182;2024-01-27T05:06:38;30.15;;;7.50;;
31770;SDS011;18343;50.152;8.182;2024-01-27T05:09:28;25.50;;;8.20;;
31770;SDS011;18343;50.152;8.182;2024-01-27T05:12:12;14.82;;;4.88;;
31770;SDS011;18343;50.152;8.182;2024-01-27T05:14:57;16.30;;;4.00;;
31770;SDS011;18343;50.152;8.182;2024-01-27T05:17:41;15.55;;;3.00;;
31770;SDS011;18343;50.152;8.182;2024-01-27T05:20:26;15.43;;;2.85;;
31770;SDS011;18343;50.152;8.182;2024-01-27T05:23:10;15.35;;;3.33;;
31770;SDS011;18343;50.152;8.182;2024-01-27T05:25:56;6.18;;;2.47;;
31770;SDS011;18343;50.152;8.182;2024-01-27T05:28:40;14.60;;;3.58;;
31770;SDS011;18343;50.152;8.182;2024-01-27T05:31:25;7.05;;;2.72;;
31770;SDS011;18343;50.152;8.182;2024-01-27T05:34:10;11.60;;;2.45;;
31770;SDS011;18343;50.152;8.182;2024-01-27T05:36:55;12.32;;;2.97;;
31770;SDS011;18343;50.152;8.182;2024-01-27T05:39:39;11.52;;;2.75;;
31770;SDS011;18343;50.152;8.182;2024-01-27T05:42:25;10.77;;;2.63;;
31770;SDS011;18343;50.152;8.182;2024-01-27T05:45:10;8.15;;;2.97;;
31770;SDS011;18343;50.152;8.182;2024-01-27T05:47:54;12.82;;;2.42;;
31770;SDS011;18343;50.152;8.182;2024-01-27T05:50:41;11.35;;;2.90;;
31770;SDS011;18343;50.152;8.182;2024-01-27T05:53:26;9.70;;;2.75;;
31770;SDS011;18343;50.152;8.182;2024-01-27T05:56:11;15.30;;;2.95;;
31770;SDS011;18343;50.152;8.182;2024-01-27T05:58:57;18.33;;;3.20;;
31770;SDS011;18343;50.152;8.182;2024-01-27T06:01:42;12.00;;;2.78;;
31770;SDS011;18343;50.152;8.182;2024-01-27T06:04:27;11.18;;;2.38;;
31770;SDS011;18343;50.152;8.182;2024-01-27T06:07:11;21.33;;;3.13;;
31770;SDS011;18343;50.152;8.182;2024-01-27T06:09:56;10.68;;;3.00;;
31770;SDS011;18343;50.152;8.182;2024-01-27T06:12:40;18.40;;;2.85;;
31770;SDS011;18343;50.152;8.182;2024-01-27T06:15:26;15.70;;;3.13;;
31770;SDS011;18343;50.152;8.182;2024-01-27T06:18:10;17.20;;;3.22;;
31770;SDS011;18343;50.152;8.182;2024-01-27T06:20:55;22.20;;;3.10;;
31770;SDS011;18343;50.152;8.182;2024-01-27T06:23:39;10.43;;;2.90;;
31770;SDS011;18343;50.152;8.182;2024-01-27T06:26:24;10.02;;;2.53;;
31770;SDS011;18343;50.152;8.182;2024-01-27T06:29:08;15.30;;;3.70;;
31770;SDS011;18343;50.152;8.182;2024-01-27T06:31:54;10.48;;;2.92;;
31770;SDS011;18343;50.152;8.182;2024-01-27T06:34:38;16.45;;;3.13;;
31770;SDS011;18343;50.152;8.182;2024-01-27T06:37:23;15.25;;;2.97;;
31770;SDS011;18343;50.152;8.182;2024-01-27T06:40:08;16.63;;;2.95;;
31770;SDS011;18343;50.152;8.182;2024-01-27T06:42:53;14.63;;;3.22;;
31770;SDS011;18343;50.152;8.182;2024-01-27T06:45:38;16.92;;;3.38;;
31770;SDS011;18343;50.152;8.182;2024-01-27T06:48:24;13.18;;;3.47;;
31770;SDS011;18343;50.152;8.182;2024-01-27T06:51:08;9.20;;;2.53;;
31770;SDS011;18343;50.152;8.182;2024-01-27T06:53:53;13.98;;;3.03;;
31770;SDS011;18343;50.152;8.182;2024-01-27T06:56:38;9.35;;;2.70;;
31770;SDS011;18343;50.152;8.182;2024-01-27T06:59:22;17.05;;;3.20;;
31770;SDS011;18343;50.152;8.182;2024-01-27T07:02:07;15.85;;;3.60;;
31770;SDS011;18343;50.152;8.182;2024-01-27T07:04:53;14.75;;;3.72;;
31770;SDS011;18343;50.152;8.182;2024-01-27T07:07:38;9.65;;;3.28;;
31770;SDS011;18343;50.152;8.182;2024-01-27T07:10:24;16.55;;;3.58;;
31770;SDS011;18343;50.152;8.182;2024-01-27T07:13:08;15.77;;;3.35;;
31770;SDS011;18343;50.152;8.182;2024-01-27T07:15:53;22.23;;;6.00;;
31770;SDS011;18343;50.152;8.182;2024-01-27T07:18:37;20.95;;;5.88;;
31770;SDS011;18343;50.152;8.182;2024-01-27T07:21:23;20.80;;;5.70;;
31770;SDS011;18343;50.152;8.182;2024-01-27T07:24:07;13.88;;;5.15;;
31770;SDS011;18343;50.152;8.182;2024-01-27T07:26:52;20.88;;;5.10;;
31770;SDS011;18343;50.152;8.182;2024-01-27T07:29:37;15.32;;;4.35;;
31770;SDS011;18343;50.152;8.182;2024-01-27T07:32:22;21.52;;;4.75;;
31770;SDS011;18343;50.152;8.182;2024-01-27T07:35:07;20.13;;;5.00;;
31770;SDS011;18343;50.152;8.182;2024-01-27T07:37:53;19.08;;;5.70;;
31770;SDS011;18343;50.152;8.182;2024-01-27T07:40:38;12.57;;;5.18;;
31770;SDS011;18343;50.152;8.182;2024-01-27T07:43:25;16.77;;;6.00;;
31770;SDS011;18343;50.152;8.182;2024-01-27T07:46:09;22.58;;;7.20;;
31770;SDS011;18343;50.152;8.182;2024-01-27T07:48:54;19.90;;;6.22;;
31770;SDS011;18343;50.152;8.182;2024-01-27T07:51:38;15.48;;;5.45;;
31770;SDS011;18343;50.152;8.182;2024-01-27T07:54:24;15.73;;;4.65;;
31770;SDS011;18343;50.152;8.182;2024-01-27T07:57:09;25.40;;;6.35;;
31770;SDS011;18343;50.152;8.182;2024-01-27T07:59:53;18.95;;;6.25;;
31770;SDS011;18343;50.152;8.182;2024-01-27T08:02:37;15.68;;;4.88;;
31770;SDS011;18343;50.152;8.182;2024-01-27T08:05:22;19.10;;;6.07;;
31770;SDS011;18343;50.152;8.182;2024-01-27T08:08:07;22.00;;;6.75;;
31770;SDS011;18343;50.152;8.182;2024-01-27T08:10:53;19.50;;;5.90;;
31770;SDS011;18343;50.152;8.182;2024-01-27T08:13:38;20.25;;;5.90;;
31770;SDS011;18343;50.152;8.182;2024-01-27T08:16:22;20.35;;;7.00;;
31770;SDS011;18343;50.152;8.182;2024-01-27T08:19:07;20.02;;;7.68;;
31770;SDS011;18343;50.152;8.182;2024-01-27T08:21:51;22.42;;;8.43;;
31770;SDS011;18343;50.152;8.182;2024-01-27T08:24:36;32.25;;;10.32;;
31770;SDS011;18343;50.152;8.182;2024-01-27T08:27:22;26.33;;;8.13;;
31770;SDS011;18343;50.152;8.182;2024-01-27T08:30:06;19.48;;;7.53;;
31770;SDS011;18343;50.152;8.182;2024-01-27T08:32:52;21.83;;;7.55;;
31770;SDS011;18343;50.152;8.182;2024-01-27T08:35:37;21.92;;;7.53;;
31770;SDS011;18343;50.152;8.182;2024-01-27T08:38:21;27.08;;;8.02;;
31770;SDS011;18343;50.152;8.182;2024-01-27T08:41:06;30.50;;;8.68;;
31770;SDS011;18343;50.152;8.182;2024-01-27T08:43:51;26.50;;;9.40;;
31770;SDS011;18343;50.152;8.182;2024-01-27T08:46:36;21.63;;;7.40;;
31770;SDS011;18343;50.152;8.182;2024-01-27T08:49:21;31.05;;;10.60;;
31770;SDS011;18343;50.152;8.182;2024-01-27T08:52:05;32.58;;;9.10;;
31770;SDS011;18343;50.152;8.182;2024-01-27T08:54:50;35.42;;;8.90;;
31770;SDS011;18343;50.152;8.182;2024-01-27T08:57:35;25.52;;;8.63;;
31770;SDS011;18343;50.152;8.182;2024-01-27T09:00:21;29.27;;;9.32;;
31770;SDS011;18343;50.152;8.182;2024-01-27T09:03:05;23.73;;;10.35;;
31770;SDS011;18343;50.152;8.182;2024-01-27T09:05:50;28.48;;;9.85;;
31770;SDS011;18343;50.152;8.182;2024-01-27T09:08:35;35.97;;;10.70;;
31770;SDS011;18343;50.152;8.182;2024-01-27T09:11:19;30.52;;;9.38;;
31770;SDS011;18343;50.152;8.182;2024-01-27T09:14:04;27.55;;;8.65;;
31770;SDS011;18343;50.152;8.182;2024-01-27T09:16:51;20.60;;;6.82;;
31770;SDS011;18343;50.152;8.182;2024-01-27T09:19:36;25.77;;;7.68;;
31770;SDS011;18343;50.152;8.182;2024-01-27T09:22:22;20.42;;;6.40;;
31770;SDS011;18343;50.152;8.182;2024-01-27T09:25:07;21.30;;;7.18;;
31770;SDS011;18343;50.152;8.182;2024-01-27T09:27:53;20.73;;;5.72;;
31770;SDS011;18343;50.152;8.182;2024-01-27T09:30:37;28.27;;;6.38;;
31770;SDS011;18343;50.152;8.182;2024-01-27T09:33:23;25.30;;;5.95;;
31770;SDS011;18343;50.152;8.182;2024-01-27T09:36:08;22.05;;;6.32;;
31770;SDS011;18343;50.152;8.182;2024-01-27T09:38:53;25.83;;;7.10;;
31770;SDS011;18343;50.152;8.182;2024-01-27T09:41:37;18.40;;;6.80;;
31770;SDS011;18343;50.152;8.182;2024-01-27T09:44:23;24.80;;;6.03;;
31770;SDS011;18343;50.152;8.182;2024-01-27T09:47:08;15.45;;;5.78;;
31770;SDS011;18343;50.152;8.182;2024-01-27T09:49:56;18.52;;;6.00;;
31770;SDS011;18343;50.152;8.182;2024-01-27T09:52:41;23.00;;;6.82;;
31770;SDS011;18343;50.152;8.182;2024-01-27T09:55:25;24.45;;;7.00;;
31770;SDS011;18343;50.152;8.182;2024-01-27T09:58:10;13.73;;;6.00;;
31770;SDS011;18343;50.152;8.182;2024-01-27T10:00:56;16.58;;;6.18;;
31770;SDS011;18343;50.152;8.182;2024-01-27T10:03:42;18.73;;;5.90;;
31770;SDS011;18343;50.152;8.182;2024-01-27T10:06:28;25.30;;;9.07;;
31770;SDS011;18343;50.152;8.182;2024-01-27T10:09:13;15.45;;;5.80;;
31770;SDS011;18343;50.152;8.182;2024-01-27T10:11:58;14.57;;;5.00;;
31770;SDS011;18343;50.152;8.182;2024-01-27T10:14:45;16.30;;;4.35;;
31770;SDS011;18343;50.152;8.182;2024-01-27T10:17:30;18.95;;;4.53;;
31770;SDS011;18343;50.152;8.182;2024-01-27T10:20:14;16.95;;;5.07;;
31770;SDS011;18343;50.152;8.182;2024-01-27T10:23:09;23.20;;;4.55;;
31770;SDS011;18343;50.152;8.182;2024-01-27T10:25:55;27.35;;;4.25;;
31770;SDS011;18343;50.152;8.182;2024-01-27T10:28:40;14.50;;;4.05;;
31770;SDS011;18343;50.152;8.182;2024-01-27T10:31:26;24.25;;;4.60;;
31770;SDS011;18343;50.152;8.182;2024-01-27T10:34:11;15.43;;;3.85;;
31770;SDS011;18343;50.152;8.182;2024-01-27T10:36:56;17.13;;;3.90;;
31770;SDS011;18343;50.152;8.182;2024-01-27T10:39:41;15.60;;;4.80;;
31770;SDS011;18343;50.152;8.182;2024-01-27T10:42:27;12.38;;;3.55;;
31770;SDS011;18343;50.152;8.182;2024-01-27T10:45:13;19.38;;;3.10;;
31770;SDS011;18343;50.152;8.182;2024-01-27T10:47:59;14.40;;;2.80;;
31770;SDS011;18343;50.152;8.182;2024-01-27T10:50:45;7.88;;;2.03;;
31770;SDS011;18343;50.152;8.182;2024-01-27T10:53:31;11.10;;;2.33;;
31770;SDS011;18343;50.152;8.182;2024-01-27T10:56:18;10.45;;;1.90;;
31770;SDS011;18343;50.152;8.182;2024-01-27T10:59:04;11.35;;;2.05;;
31770;SDS011;18343;50.152;8.182;2024-01-27T11:01:51;12.90;;;2.60;;
31770;SDS011;18343;50.152;8.182;2024-01-27T11:04:37;12.73;;;2.33;;
31770;SDS011;18343;50.152;8.182;2024-01-27T11:07:24;15.77;;;3.00;;
31770;SDS011;18343;50.152;8.182;2024-01-27T11:10:10;15.00;;;2.28;;
31770;SDS011;18343;50.152;8.182;2024-01-27T11:12:56;13.05;;;2.40;;
31770;SDS011;18343;50.152;8.182;2024-01-27T11:15:50;19.55;;;2.50;;
31770;SDS011;18343;50.152;8.182;2024-01-27T11:18:35;15.40;;;2.80;;
31770;SDS011;18343;50.152;8.182;2024-01-27T11:21:20;14.05;;;2.83;;
31770;SDS011;18343;50.152;8.182;2024-01-27T11:24:12;14.88;;;2.85;;
31770;SDS011;18343;50.152;8.182;2024-01-27T11:27:01;18.27;;;2.60;;
31770;SDS011;18343;50.152;8.182;2024-01-27T11:29:49;16.27;;;2.30;;
31770;SDS011;18343;50.152;8.182;2024-01-27T11:32:33;17.30;;;3.50;;
31770;SDS011;18343;50.152;8.182;2024-01-27T11:35:20;20.45;;;2.75;;
31770;SDS011;18343;50.152;8.182;2024-01-27T11:38:04;8.23;;;2.50;;
31770;SDS011;18343;50.152;8.182;2024-01-27T11:40:49;13.77;;;2.60;;
31770;SDS011;18343;50.152;8.182;2024-01-27T11:43:33;14.95;;;2.97;;
31770;SDS011;18343;50.152;8.182;2024-01-27T11:46:19;12.02;;;2.58;;
31770;SDS011;18343;50.152;8.182;2024-01-27T11:49:04;21.83;;;3.47;;
31770;SDS011;18343;50.152;8.182;2024-01-27T11:51:48;15.32;;;3.10;;
31770;SDS011;18343;50.152;8.182;2024-01-27T11:54:55;14.50;;;2.50;;
31770;SDS011;18343;50.152;8.182;2024-01-27T11:57:40;16.23;;;2.78;;
31770;SDS011;18343;50.152;8.182;2024-01-27T12:00:25;16.75;;;3.10;;
31770;SDS011;18343;50.152;8.182;2024-01-27T12:03:11;9.90;;;2.67;;
31770;SDS011;18343;50.152;8.182;2024-01-27T12:05:57;9.60;;;3.00;;
31770;SDS011;18343;50.152;8.182;2024-01-27T12:08:42;15.85;;;2.85;;
31770;SDS011;18343;50.152;8.182;2024-01-27T12:11:26;11.63;;;2.53;;
31770;SDS011;18343;50.152;8.182;2024-01-27T12:14:11;8.80;;;2.80;;
31770;SDS011;18343;50.152;8.182;2024-01-27T12:16:57;11.50;;;2.75;;
31770;SDS011;18343;50.152;8.182;2024-01-27T12:19:47;9.18;;;2.63;;
31770;SDS011;18343;50.152;8.182;2024-01-27T12:22:32;16.08;;;2.72;;
31770;SDS011;18343;50.152;8.182;2024-01-27T12:25:17;9.65;;;2.85;;
31770;SDS011;18343;50.152;8.182;2024-01-27T12:28:05;13.73;;;2.65;;
31770;SDS011;18343;50.152;8.182;2024-01-27T12:30:50;16.85;;;2.70;;
31770;SDS011;18343;50.152;8.182;2024-01-27T12:33:35;14.23;;;2.88;;
31770;SDS011;18343;50.152;8.182;2024-01-27T12:36:21;9.27;;;2.47;;
31770;SDS011;18343;50.152;8.182;2024-01-27T12:39:06;13.00;;;3.38;;
31770;SDS011;18343;50.152;8.182;2024-01-27T12:41:52;15.07;;;2.45;;
31770;SDS011;18343;50.152;8.182;2024-01-27T12:44:37;14.23;;;2.75;;
31770;SDS011;18343;50.152;8.182;2024-01-27T12:47:22;15.15;;;2.78;;
31770;SDS011;18343;50.152;8.182;2024-01-27T12:50:07;14.07;;;3.03;;
31770;SDS011;18343;50.152;8.182;2024-01-27T12:52:54;9.43;;;2.50;;
31770;SDS011;18343;50.152;8.182;2024-01-27T12:55:39;14.15;;;3.35;;
31770;SDS011;18343;50.152;8.182;2024-01-27T12:58:23;17.08;;;2.80;;
31770;SDS011;18343;50.152;8.182;2024-01-27T13:01:08;11.45;;;3.30;;
31770;SDS011;18343;50.152;8.182;2024-01-27T13:03:53;12.68;;;2.50;;
31770;SDS011;18343;50.152;8.182;2024-01-27T13:06:37;9.55;;;2.20;;
31770;SDS011;18343;50.152;8.182;2024-01-27T13:09:23;17.50;;;2.28;;
31770;SDS011;18343;50.152;8.182;2024-01-27T13:12:08;15.05;;;2.13;;
31770;SDS011;18343;50.152;8.182;2024-01-27T13:14:52;15.50;;;2.97;;
31770;SDS011;18343;50.152;8.182;2024-01-27T13:17:37;11.98;;;3.15;;
31770;SDS011;18343;50.152;8.182;2024-01-27T13:20:21;10.40;;;2.72;;
31770;SDS011;18343;50.152;8.182;2024-01-27T13:23:06;16.08;;;3.85;;
31770;SDS011;18343;50.152;8.182;2024-01-27T13:25:53;19.10;;;2.97;;
31770;SDS011;18343;50.152;8.182;2024-01-27T13:28:37;10.25;;;3.15;;
31770;SDS011;18343;50.152;8.182;2024-01-27T13:31:22;7.80;;;2.10;;
31770;SDS011;18343;50.152;8.182;2024-01-27T13:34:07;14.75;;;3.47;;
31770;SDS011;18343;50.152;8.182;2024-01-27T13:36:51;10.68;;;2.55;;
31770;SDS011;18343;50.152;8.182;2024-01-27T13:39:36;15.60;;;3.35;;
31770;SDS011;18343;50.152;8.182;2024-01-27T13:42:22;11.70;;;2.53;;
31770;SDS011;18343;50.152;8.182;2024-01-27T13:45:07;12.52;;;2.05;;
31770;SDS011;18343;50.152;8.182;2024-01-27T13:47:52;15.63;;;2.45;;
31770;SDS011;18343;50.152;8.182;2024-01-27T13:50:36;9.05;;;2.25;;
31770;SDS011;18343;50.152;8.182;2024-01-27T13:53:21;13.65;;;2.38;;
31770;SDS011;18343;50.152;8.182;2024-01-27T13:56:06;9.88;;;2.22;;
31770;SDS011;18343;50.152;8.182;2024-01-27T13:58:52;9.73;;;2.17;;
31770;SDS011;18343;50.152;8.182;2024-01-27T14:01:36;13.40;;;2.38;;
31770;SDS011;18343;50.152;8.182;2024-01-27T14:04:21;10.75;;;2.80;;
31770;SDS011;18343;50.152;8.182;2024-01-27T14:07:06;10.35;;;2.20;;
31770;SDS011;18343;50.152;8.182;2024-01-27T14:09:50;11.77;;;2.38;;
31770;SDS011;18343;50.152;8.182;2024-01-27T14:12:34;9.57;;;2.55;;
31770;SDS011;18343;50.152;8.182;2024-01-27T14:15:20;14.38;;;3.65;;
31770;SDS011;18343;50.152;8.182;2024-01-27T14:18:05;9.90;;;2.47;;
31770;SDS011;18343;50.152;8.182;2024-01-27T14:20:50;9.32;;;2.33;;
31770;SDS011;18343;50.152;8.182;2024-01-27T14:23:34;10.73;;;2.20;;
31770;SDS011;18343;50.152;8.182;2024-01-27T14:26:19;13.35;;;2.40;;
31770;SDS011;18343;50.152;8.182;2024-01-27T14:29:04;10.48;;;2.42;;
31770;SDS011;18343;50.152;8.182;2024-01-27T14:31:49;11.23;;;1.80;;
31770;SDS011;18343;50.152;8.182;2024-01-27T14:34:34;8.85;;;1.92;;
31770;SDS011;18343;50.152;8.182;2024-01-27T14:37:18;11.73;;;2.13;;
31770;SDS011;18343;50.152;8.182;2024-01-27T14:40:03;7.93;;;1.98;;
31770;SDS011;18343;50.152;8.182;2024-01-27T14:42:49;10.68;;;2.10;;
31770;SDS011;18343;50.152;8.182;2024-01-27T14:45:33;9.93;;;2.10;;
31770;SDS011;18343;50.152;8.182;2024-01-27T14:48:19;9.52;;;2.25;;
31770;SDS011;18343;50.152;8.182;2024-01-27T14:51:04;10.45;;;2.13;;
31770;SDS011;18343;50.152;8.182;2024-01-27T14:53:49;10.07;;;2.03;;
31770;SDS011;18343;50.152;8.182;2024-01-27T14:56:33;12.32;;;2.95;;
31770;SDS011;18343;50.152;8.182;2024-01-27T14:59:18;20.25;;;3.58;;
31770;SDS011;18343;50.152;8.182;2024-01-27T15:02:03;10.82;;;2.33;;
31770;SDS011;18343;50.152;8.182;2024-01-27T15:04:49;16.88;;;3.40;;
31770;SDS011;18343;50.152;8.182;2024-01-27T15:07:33;23.23;;;4.63;;
31770;SDS011;18343;50.152;8.182;2024-01-27T15:10:18;21.48;;;6.50;;
31770;SDS011;18343;50.152;8.182;2024-01-27T15:13:03;15.38;;;2.67;;
31770;SDS011;18343;50.152;8.182;2024-01-27T15:15:48;12.95;;;2.75;;
31770;SDS011;18343;50.152;8.182;2024-01-27T15:18:32;12.35;;;2.72;;
31770;SDS011;18343;50.152;8.182;2024-01-27T15:21:19;11.85;;;2.80;;
31770;SDS011;18343;50.152;8.182;2024-01-27T15:24:04;13.52;;;3.10;;
31770;SDS011;18343;50.152;8.182;2024-01-27T15:26:49;19.08;;;8.00;;
31770;SDS011;18343;50.152;8.182;2024-01-27T15:29:34;17.08;;;5.43;;
31770;SDS011;18343;50.152;8.182;2024-01-27T15:32:19;43.38;;;13.20;;
31770;SDS011;18343;50.152;8.182;2024-01-27T15:35:04;68.47;;;29.50;;
31770;SDS011;18343;50.152;8.182;2024-01-27T15:37:51;72.22;;;18.38;;
31770;SDS011;18343;50.152;8.182;2024-01-27T15:40:36;189.38;;;44.22;;
31770;SDS011;18343;50.152;8.182;2024-01-27T15:43:20;56.78;;;29.98;;
31770;SDS011;18343;50.152;8.182;2024-01-27T15:46:05;21.67;;;8.38;;
31770;SDS011;18343;50.152;8.182;2024-01-27T15:48:50;18.85;;;7.07;;
31770;SDS011;18343;50.152;8.182;2024-01-27T15:51:34;24.85;;;8.50;;
31770;SDS011;18343;50.152;8.182;2024-01-27T15:54:20;27.85;;;9.63;;
31770;SDS011;18343;50.152;8.182;2024-01-27T15:57:05;21.92;;;7.25;;
31770;SDS011;18343;50.152;8.182;2024-01-27T15:59:49;27.02;;;6.78;;
31770;SDS011;18343;50.152;8.182;2024-01-27T16:02:34;18.30;;;4.93;;
31770;SDS011;18343;50.152;8.182;2024-01-27T16:05:19;17.70;;;5.68;;
31770;SDS011;18343;50.152;8.182;2024-01-27T16:08:03;22.85;;;6.30;;
31770;SDS011;18343;50.152;8.182;2024-01-27T16:10:49;12.95;;;5.68;;
31770;SDS011;18343;50.152;8.182;2024-01-27T16:13:34;28.10;;;9.18;;
31770;SDS011;18343;50.152;8.182;2024-01-27T16:16:18;60.45;;;20.48;;
31770;SDS011;18343;50.152;8.182;2024-01-27T16:19:03;49.22;;;16.50;;
31770;SDS011;18343;50.152;8.182;2024-01-27T17:01:48;41.85;;;14.07;;